Olongapo, Philippines
Current Conditions -  °F | °C
As of 4:00 PM on Friday 19 Dec 2014 (Local Time) from RPLB Reporting Station
Broken Clouds Broken Clouds  
Wind Chill: 82°   Ceiling: 8000
Heat Index: 85°   Visibility: 6mi
Dew Point: 66°   Wind: 14mph
Humidity: 58%   Direction: 70°ENE
Pressure: 29.88"   Gusts: NA
Location:  14.82°N, 120.28°E
Report Text: RPLB 190800Z 07012KT 9999 FEW020 BKN080 28/19 Q1012 NOSIG RMK A2988
Loading
Personal Weather Stations






























Interactive Weather Map New forecast layout! Learn more

10-Day Weather Forecast

Advertisements
Track Severe Weather on mobile